Terminal Aerodrome Forecast
Issued by NWS

Home | Current Version | Previous Version | Text Only | Print | Product List | Glossary On
Versions: 1 2 3 4 5 6 7 8 9 10 11 12 13 14 15 16
000
FTUS45 KBOI 242339
TAFTWF
TAF
KTWF 242339Z 2500/2524 26010KT P6SM SCT200
     FM250100 20007KT P6SM SCT150
     FM252000 07011KT P6SM BKN150=

USA.gov is the U.S. government's official web portal to all federal, state and local government web resources and services.